createdAt,value
2018-02-11T00:00:19.775Z,57.45
2018-02-11T00:02:45.690Z,57.35
2018-02-11T00:05:11.609Z,57.53
2018-02-11T00:07:37.550Z,56.79
2018-02-11T00:10:03.497Z,58.00
2018-02-11T00:12:29.418Z,58.17
2018-02-11T00:14:55.360Z,57.11
2018-02-11T00:17:21.302Z,57.02
2018-02-11T00:19:47.225Z,57.65
2018-02-11T00:22:13.158Z,57.01
2018-02-11T00:24:39.097Z,56.62
2018-02-11T00:27:05.010Z,57.50
2018-02-11T00:29:30.934Z,57.76
2018-02-11T00:31:56.854Z,57.76
2018-02-11T00:34:22.816Z,57.59
2018-02-11T00:36:48.742Z,57.07
2018-02-11T00:39:14.700Z,57.41
2018-02-11T00:41:40.649Z,57.56
2018-02-11T00:44:06.599Z,57.49
2018-02-11T00:46:32.521Z,57.59
2018-02-11T00:48:58.450Z,56.95
2018-02-11T00:51:24.381Z,57.48
2018-02-11T00:53:50.312Z,57.97
2018-02-11T00:56:16.238Z,56.84
2018-02-11T00:58:42.178Z,57.66
2018-02-11T01:01:08.110Z,56.86
2018-02-11T01:03:34.077Z,57.26
2018-02-11T01:05:59.999Z,57.54
2018-02-11T01:08:25.947Z,57.18
2018-02-11T01:10:51.875Z,57.59
2018-02-11T01:13:17.919Z,57.26
2018-02-11T01:15:43.851Z,57.13
2018-02-11T01:18:09.779Z,57.21
2018-02-11T01:20:35.704Z,57.68
2018-02-11T01:23:01.621Z,57.37
2018-02-11T01:25:27.547Z,57.39
2018-02-11T01:27:53.553Z,57.00
2018-02-11T01:30:19.479Z,57.34
2018-02-11T01:32:45.411Z,57.08
2018-02-11T01:35:11.343Z,56.64
2018-02-11T01:37:37.285Z,57.07
2018-02-11T01:40:03.234Z,57.10
2018-02-11T01:42:29.165Z,57.36
2018-02-11T01:44:55.115Z,57.09
2018-02-11T01:47:21.041Z,57.42
2018-02-11T01:49:46.973Z,57.37
2018-02-11T01:52:12.897Z,57.72
2018-02-11T01:54:38.839Z,57.64
2018-02-11T01:57:04.772Z,57.42
2018-02-11T01:59:30.715Z,57.88
2018-02-11T02:01:56.659Z,58.19
2018-02-11T02:04:22.593Z,57.92
2018-02-11T02:06:48.522Z,58.09
2018-02-11T02:09:14.483Z,57.61
2018-02-11T02:11:40.393Z,57.94
2018-02-11T02:14:06.319Z,58.39
2018-02-11T02:16:32.246Z,57.83
2018-02-11T02:18:58.197Z,58.34
2018-02-11T02:21:24.127Z,58.37
2018-02-11T02:23:50.061Z,58.99
2018-02-11T02:26:16.007Z,59.21
2018-02-11T02:28:41.941Z,59.32
2018-02-11T02:31:07.889Z,59.93
2018-02-11T02:33:33.837Z,59.54
2018-02-11T02:35:59.770Z,59.28
2018-02-11T02:38:25.704Z,58.73
2018-02-11T02:40:51.642Z,59.14
2018-02-11T02:43:17.583Z,59.22
2018-02-11T02:45:43.509Z,59.31
2018-02-11T02:48:09.464Z,59.01
2018-02-11T02:50:35.384Z,58.46
2018-02-11T02:53:01.321Z,57.36
2018-02-11T02:55:27.262Z,56.42
2018-02-11T02:57:53.195Z,57.19
2018-02-11T03:00:19.131Z,56.69
2018-02-11T03:02:45.081Z,57.02
2018-02-11T03:05:11.005Z,58.32
2018-02-11T03:07:36.943Z,58.31
2018-02-11T03:10:02.879Z,57.82
2018-02-11T03:12:28.825Z,57.96
2018-02-11T03:14:54.749Z,58.25
2018-02-11T03:17:20.693Z,58.02
2018-02-11T03:19:46.625Z,58.17
2018-02-11T03:22:12.545Z,58.71
2018-02-11T03:24:38.480Z,58.96
2018-02-11T03:27:04.417Z,59.75
2018-02-11T03:29:30.363Z,57.98
2018-02-11T03:31:56.370Z,59.28
2018-02-11T03:34:22.305Z,59.01
2018-02-11T03:36:48.287Z,57.54
2018-02-11T03:39:14.209Z,57.49
2018-02-11T03:41:40.134Z,58.11
2018-02-11T03:44:06.068Z,56.88
2018-02-11T03:46:31.989Z,56.56
2018-02-11T03:48:57.912Z,56.79
2018-02-11T03:51:23.858Z,56.49
2018-02-11T03:53:49.785Z,56.49
2018-02-11T03:56:15.709Z,57.15
2018-02-11T03:58:41.625Z,59.00
2018-02-11T04:01:07.548Z,57.13
2018-02-11T04:03:33.473Z,57.46
2018-02-11T04:05:59.413Z,59.11
2018-02-11T04:08:25.349Z,59.87
2018-02-11T04:10:51.289Z,59.85
2018-02-11T04:13:17.219Z,59.78
2018-02-11T04:15:43.165Z,59.71
2018-02-11T04:18:09.119Z,59.50
2018-02-11T04:20:35.046Z,59.79
2018-02-11T04:23:01.001Z,60.37
2018-02-11T04:25:26.933Z,59.73
2018-02-11T04:27:52.914Z,59.32
2018-02-11T04:30:18.903Z,60.59
2018-02-11T04:32:44.825Z,61.28
2018-02-11T04:35:10.749Z,59.76
2018-02-11T04:37:36.681Z,59.83
2018-02-11T04:40:02.609Z,60.18
2018-02-11T04:42:28.557Z,59.92
2018-02-11T04:44:54.538Z,60.65
2018-02-11T04:47:20.487Z,60.38
2018-02-11T04:49:46.419Z,59.83
2018-02-11T04:52:12.341Z,58.99
2018-02-11T04:54:38.274Z,59.07
2018-02-11T04:57:04.201Z,58.11
2018-02-11T04:59:30.133Z,58.58
2018-02-11T05:01:56.191Z,58.78
2018-02-11T05:04:22.117Z,59.63
2018-02-11T05:06:48.042Z,59.35
2018-02-11T05:09:13.957Z,58.68
2018-02-11T05:11:39.877Z,58.22
2018-02-11T05:14:05.825Z,57.32
2018-02-11T05:16:31.753Z,56.85
2018-02-11T05:18:57.677Z,56.46
2018-02-11T05:21:23.593Z,56.14
2018-02-11T05:23:49.557Z,55.95
2018-02-11T05:26:15.493Z,56.26
2018-02-11T05:28:41.416Z,56.21
2018-02-11T05:31:07.379Z,56.05
2018-02-11T05:33:33.294Z,56.36
2018-02-11T05:35:59.221Z,56.07
2018-02-11T05:38:25.213Z,55.94
2018-02-11T05:40:51.137Z,55.91
2018-02-11T05:43:17.074Z,56.05
2018-02-11T05:45:43.013Z,55.69
2018-02-11T05:48:08.943Z,56.01
2018-02-11T05:50:34.861Z,56.21
2018-02-11T05:53:00.791Z,55.71
2018-02-11T05:55:26.719Z,55.83
2018-02-11T05:57:52.655Z,55.98
2018-02-11T06:00:18.587Z,55.84
2018-02-11T06:02:44.515Z,55.47
2018-02-11T06:05:10.451Z,55.57
2018-02-11T06:07:36.373Z,55.27
2018-02-11T06:10:02.289Z,54.50
2018-02-11T06:12:28.235Z,54.69
2018-02-11T06:14:54.169Z,54.67
2018-02-11T06:17:20.089Z,54.74
2018-02-11T06:19:46.011Z,54.29
2018-02-11T06:22:11.943Z,54.73
2018-02-11T06:24:37.862Z,54.56
2018-02-11T06:27:03.819Z,54.82
2018-02-11T06:29:29.749Z,53.57
2018-02-11T06:31:55.687Z,54.00
2018-02-11T06:34:21.619Z,54.09
2018-02-11T06:36:47.554Z,54.24
2018-02-11T06:39:13.490Z,54.05
2018-02-11T06:41:39.430Z,53.98
2018-02-11T06:44:05.353Z,53.29
2018-02-11T06:46:31.276Z,53.45
2018-02-11T06:48:57.191Z,53.13
2018-02-11T06:51:23.118Z,52.41
2018-02-11T06:53:49.041Z,52.70
2018-02-11T06:56:14.979Z,53.40
2018-02-11T06:58:40.906Z,53.04
2018-02-11T07:01:06.831Z,52.45
2018-02-11T07:03:32.767Z,52.47
2018-02-11T07:05:58.685Z,52.05
2018-02-11T07:08:24.617Z,51.12
2018-02-11T07:10:50.590Z,50.71
2018-02-11T07:13:16.521Z,50.04
2018-02-11T07:15:42.455Z,49.42
2018-02-11T07:18:08.412Z,48.85
2018-02-11T07:20:34.343Z,48.94
2018-02-11T07:23:00.288Z,48.37
2018-02-11T07:25:26.218Z,47.86
2018-02-11T07:27:52.135Z,47.96
2018-02-11T07:30:18.059Z,48.20
2018-02-11T07:32:43.979Z,47.52
2018-02-11T07:35:09.899Z,46.81
2018-02-11T07:37:35.864Z,46.58
2018-02-11T07:40:01.805Z,46.80
2018-02-11T07:42:27.759Z,45.88
2018-02-11T07:44:53.704Z,46.86
2018-02-11T07:47:19.639Z,45.52
2018-02-11T07:49:45.573Z,45.39
2018-02-11T07:52:11.513Z,45.40
2018-02-11T07:54:37.464Z,45.08
2018-02-11T07:57:03.391Z,45.26
2018-02-11T07:59:29.313Z,44.99
2018-02-11T08:01:55.248Z,45.61
2018-02-11T08:04:21.207Z,45.58
2018-02-11T08:06:47.154Z,46.36
2018-02-11T08:09:13.076Z,45.84
2018-02-11T08:11:39.018Z,45.85
2018-02-11T08:14:04.965Z,45.81
2018-02-11T08:16:30.910Z,46.11
2018-02-11T08:18:57.942Z,46.18
2018-02-11T08:21:23.866Z,45.74
2018-02-11T08:23:49.816Z,45.81
2018-02-11T08:26:15.751Z,45.86
2018-02-11T08:28:41.678Z,45.63
2018-02-11T08:31:07.593Z,44.86
2018-02-11T08:33:33.534Z,44.88
2018-02-11T08:35:59.466Z,44.58
2018-02-11T08:38:25.468Z,45.41
2018-02-11T08:40:51.400Z,44.81
2018-02-11T08:43:17.330Z,45.29
2018-02-11T08:45:43.262Z,45.59
2018-02-11T08:48:09.182Z,45.30
2018-02-11T08:50:35.107Z,45.60
2018-02-11T08:53:01.091Z,46.36
2018-02-11T08:55:27.028Z,45.42
2018-02-11T08:57:52.968Z,45.57
2018-02-11T09:00:18.952Z,46.28
2018-02-11T09:02:44.900Z,48.38
2018-02-11T09:05:10.960Z,48.84
2018-02-11T09:07:37.182Z,47.99
2018-02-11T09:10:03.210Z,46.61
2018-02-11T09:12:29.353Z,47.38
2018-02-11T09:14:55.422Z,47.01
2018-02-11T09:17:21.368Z,47.04
2018-02-11T09:19:47.307Z,48.04
2018-02-11T09:22:13.218Z,47.49
2018-02-11T09:24:39.199Z,46.49
2018-02-11T09:27:05.864Z,47.15
2018-02-11T09:29:31.802Z,46.45
2018-02-11T09:31:57.726Z,46.96
2018-02-11T09:34:23.681Z,47.77
2018-02-11T09:36:49.673Z,48.03
2018-02-11T09:39:16.069Z,48.64
2018-02-11T09:41:42.053Z,47.82
2018-02-11T09:44:08.005Z,46.69
2018-02-11T09:46:34.025Z,47.57
2018-02-11T09:48:59.968Z,47.17
2018-02-11T09:51:25.903Z,46.60
2018-02-11T09:53:51.831Z,47.05
2018-02-11T09:56:17.969Z,46.48
2018-02-11T09:58:43.993Z,45.95
2018-02-11T10:01:10.061Z,46.24
2018-02-11T10:03:36.019Z,46.13
2018-02-11T10:06:01.967Z,46.07
2018-02-11T10:08:27.923Z,46.19
2018-02-11T10:10:53.867Z,45.62
2018-02-11T10:13:19.813Z,45.77
2018-02-11T10:15:45.735Z,45.75
2018-02-11T10:18:11.901Z,45.99
2018-02-11T10:20:37.903Z,45.77
2018-02-11T10:23:03.855Z,46.28
2018-02-11T10:25:29.951Z,45.06
2018-02-11T10:27:56.023Z,45.14
2018-02-11T10:30:21.964Z,45.10
2018-02-11T10:32:47.959Z,45.12
2018-02-11T10:35:13.885Z,45.08
2018-02-11T10:37:39.845Z,45.65
2018-02-11T10:40:05.811Z,46.18
2018-02-11T10:42:31.863Z,46.31
2018-02-11T10:44:57.935Z,45.13
2018-02-11T10:47:23.961Z,45.89
2018-02-11T10:49:49.889Z,45.27
2018-02-11T10:52:15.823Z,47.91
2018-02-11T10:54:41.769Z,46.30
2018-02-11T10:57:08.109Z,46.42
2018-02-11T10:59:35.138Z,46.28
2018-02-11T11:02:01.227Z,46.09
2018-02-11T11:04:27.193Z,46.34
2018-02-11T11:06:53.522Z,48.10
2018-02-11T11:09:19.500Z,46.54
2018-02-11T11:11:45.498Z,46.36
2018-02-11T11:14:11.529Z,46.55
2018-02-11T11:16:37.630Z,46.53
2018-02-11T11:19:03.800Z,46.60
2018-02-11T11:21:30.796Z,48.27
2018-02-11T11:23:56.723Z,46.96
2018-02-11T11:26:22.650Z,48.28
2018-02-11T11:28:48.586Z,47.66
2018-02-11T11:31:14.610Z,46.71
2018-02-11T11:33:40.654Z,47.11
2018-02-11T11:36:06.646Z,46.61
2018-02-11T11:38:32.751Z,46.26
2018-02-11T11:40:58.694Z,47.25
2018-02-11T11:43:24.622Z,47.96
2018-02-11T11:45:50.637Z,47.58
2018-02-11T11:48:17.056Z,52.51
2018-02-11T11:50:43.007Z,48.85
2018-02-11T11:53:09.108Z,48.13
2018-02-11T11:55:35.112Z,48.29
2018-02-11T11:58:01.202Z,47.79
2018-02-11T12:00:27.147Z,47.81
2018-02-11T12:02:53.280Z,49.72
2018-02-11T12:05:19.244Z,47.07
2018-02-11T12:07:45.178Z,48.27
2018-02-11T12:10:11.105Z,47.14
2018-02-11T12:12:37.166Z,47.85
2018-02-11T12:15:03.183Z,47.18
2018-02-11T12:17:29.347Z,47.50
2018-02-11T12:19:55.350Z,47.64
2018-02-11T12:22:21.282Z,47.75
2018-02-11T12:24:47.201Z,47.26
2018-02-11T12:27:13.415Z,47.52
2018-02-11T12:29:39.355Z,47.28
2018-02-11T12:32:05.463Z,47.09
2018-02-11T12:34:31.524Z,46.11
2018-02-11T12:36:57.678Z,46.27
2018-02-11T12:39:23.895Z,45.92
2018-02-11T12:41:49.919Z,45.66
2018-02-11T12:44:15.920Z,45.67
2018-02-11T12:46:41.934Z,46.21
2018-02-11T12:49:07.859Z,46.08
2018-02-11T12:51:33.946Z,46.45
2018-02-11T12:53:59.917Z,45.59
2018-02-11T12:56:25.921Z,46.38
2018-02-11T12:58:51.946Z,45.96
2018-02-11T13:01:17.887Z,46.15
2018-02-11T13:03:44.037Z,45.76
2018-02-11T13:06:10.029Z,46.32
2018-02-11T13:08:36.066Z,45.86
2018-02-11T13:11:02.079Z,46.33
2018-02-11T13:13:28.178Z,46.61
2018-02-11T13:15:54.103Z,46.17
2018-02-11T13:18:20.033Z,46.12
2018-02-11T13:20:46.071Z,46.27
2018-02-11T13:23:12.112Z,45.80
2018-02-11T13:25:38.050Z,46.30
2018-02-11T13:28:04.117Z,45.90
2018-02-11T13:30:30.170Z,46.02
2018-02-11T13:32:56.273Z,46.30
2018-02-11T13:35:22.223Z,46.08
2018-02-11T13:37:49.254Z,45.79
2018-02-11T13:40:15.181Z,46.44
2018-02-11T13:42:41.193Z,46.25
2018-02-11T13:45:07.131Z,47.20
2018-02-11T13:47:33.353Z,46.71
2018-02-11T13:49:59.709Z,47.36
2018-02-11T13:52:25.668Z,47.89
2018-02-11T13:54:51.621Z,48.36
2018-02-11T13:57:17.649Z,53.01
2018-02-11T13:59:43.595Z,51.88
2018-02-11T14:02:09.519Z,51.61
2018-02-11T14:04:35.465Z,51.23
2018-02-11T14:07:01.483Z,51.28
2018-02-11T14:09:27.462Z,51.79
2018-02-11T14:11:53.427Z,51.14
2018-02-11T14:14:19.372Z,51.17
2018-02-11T14:16:45.307Z,52.12
2018-02-11T14:19:11.238Z,52.50
2018-02-11T14:21:37.158Z,52.51
2018-02-11T14:24:03.205Z,53.13
2018-02-11T14:26:30.156Z,52.99
2018-02-11T14:28:56.078Z,54.08
2018-02-11T14:31:22.096Z,55.87
2018-02-11T14:33:48.032Z,55.07
2018-02-11T14:36:13.971Z,55.26
2018-02-11T14:38:39.896Z,55.53
2018-02-11T14:41:05.810Z,55.32
2018-02-11T14:43:31.758Z,56.22
2018-02-11T14:45:57.730Z,56.67
2018-02-11T14:48:23.659Z,57.71
2018-02-11T14:50:49.665Z,58.91
2018-02-11T14:53:15.595Z,59.27
2018-02-11T14:55:41.532Z,59.31
2018-02-11T14:58:07.526Z,60.10
2018-02-11T15:00:33.573Z,61.72
2018-02-11T15:02:59.581Z,60.58
2018-02-11T15:05:25.518Z,59.65
2018-02-11T15:07:51.440Z,59.37
2018-02-11T15:10:17.396Z,60.46
2018-02-11T15:12:43.384Z,60.54
2018-02-11T15:15:09.325Z,61.40
2018-02-11T15:17:35.340Z,60.85
2018-02-11T15:20:01.274Z,59.80
2018-02-11T15:22:27.201Z,60.59
2018-02-11T15:24:53.128Z,60.65
2018-02-11T15:27:19.050Z,62.09
2018-02-11T15:29:44.978Z,63.95
2018-02-11T15:32:10.898Z,62.38
2018-02-11T15:34:36.832Z,62.04
2018-02-11T15:37:02.758Z,62.79
2018-02-11T15:39:28.699Z,63.32
2018-02-11T15:41:54.628Z,62.91
2018-02-11T15:44:20.552Z,63.02
2018-02-11T15:46:46.476Z,61.71
2018-02-11T15:49:12.394Z,63.44
2018-02-11T15:51:38.321Z,61.24
2018-02-11T15:54:04.242Z,62.70
2018-02-11T15:56:30.840Z,61.13
2018-02-11T15:58:56.782Z,59.84
2018-02-11T16:01:22.709Z,60.60
2018-02-11T16:03:48.630Z,60.69
2018-02-11T16:06:14.554Z,61.74
2018-02-11T16:08:40.470Z,61.81
2018-02-11T16:11:06.391Z,61.24
2018-02-11T16:13:32.350Z,62.88
2018-02-11T16:15:58.353Z,63.20
2018-02-11T16:18:24.282Z,64.78
2018-02-11T16:20:50.213Z,64.12
2018-02-11T16:23:16.152Z,64.71
2018-02-11T16:25:42.070Z,64.72
2018-02-11T16:28:08.082Z,63.19
2018-02-11T16:30:34.090Z,63.21
2018-02-11T16:33:00.042Z,63.86
2018-02-11T16:35:25.974Z,64.15
2018-02-11T16:37:51.920Z,63.34
2018-02-11T16:40:17.848Z,64.36
2018-02-11T16:42:43.774Z,64.08
2018-02-11T16:45:09.698Z,66.37
2018-02-11T16:47:35.626Z,66.62
2018-02-11T16:50:01.606Z,66.13
2018-02-11T16:52:27.558Z,64.88
2018-02-11T16:54:53.518Z,64.95
2018-02-11T16:57:19.563Z,64.83
2018-02-11T16:59:45.568Z,65.39
2018-02-11T17:02:11.527Z,64.41
2018-02-11T17:04:37.476Z,65.19
2018-02-11T17:07:03.391Z,64.60
2018-02-11T17:09:29.318Z,65.95
2018-02-11T17:11:55.263Z,66.12
2018-02-11T17:14:21.184Z,64.74
2018-02-11T17:16:47.098Z,64.61
2018-02-11T17:19:13.037Z,65.88
2018-02-11T17:21:38.966Z,65.48
2018-02-11T17:24:04.899Z,64.61
2018-02-11T17:26:30.828Z,65.43
2018-02-11T17:28:57.705Z,64.22
2018-02-11T17:31:26.042Z,65.87
2018-02-11T17:33:51.972Z,66.11
2018-02-11T17:36:18.033Z,64.81
2018-02-11T17:38:43.992Z,65.22
2018-02-11T17:41:09.959Z,64.71
2018-02-11T17:43:35.923Z,64.68
2018-02-11T17:46:01.868Z,64.36
2018-02-11T17:48:27.829Z,65.03
2018-02-11T17:50:53.767Z,64.17
2018-02-11T17:53:20.878Z,63.09
2018-02-11T17:55:46.825Z,60.21
2018-02-11T17:58:12.767Z,60.62
2018-02-11T18:00:38.687Z,59.41
2018-02-11T18:03:04.618Z,59.41
2018-02-11T18:05:30.579Z,59.75
2018-02-11T18:07:56.619Z,57.99
2018-02-11T18:10:22.631Z,57.06
2018-02-11T18:12:48.667Z,57.34
2018-02-11T18:15:14.683Z,56.95
2018-02-11T18:17:40.773Z,56.94
2018-02-11T18:20:06.745Z,56.90
2018-02-11T18:22:32.745Z,56.46
2018-02-11T18:24:58.839Z,57.16
2018-02-11T18:27:24.823Z,56.45
2018-02-11T18:29:50.823Z,57.75
2018-02-11T18:32:16.841Z,57.71
2018-02-11T18:34:42.871Z,57.73
2018-02-11T18:37:08.889Z,56.21
2018-02-11T18:39:34.923Z,56.54
2018-02-11T18:42:00.942Z,57.34
2018-02-11T18:44:26.992Z,56.90
2018-02-11T18:46:54.241Z,57.45
2018-02-11T18:49:20.248Z,56.00
2018-02-11T18:51:46.275Z,56.04
2018-02-11T18:54:12.296Z,56.11
2018-02-11T18:56:38.306Z,56.04
2018-02-11T18:59:04.386Z,60.19
2018-02-11T19:01:32.108Z,67.50
2018-02-11T19:03:58.193Z,65.11
2018-02-11T19:06:24.152Z,65.41
2018-02-11T19:08:50.178Z,63.08
2018-02-11T19:11:16.204Z,61.50
2018-02-11T19:13:42.214Z,63.35
2018-02-11T19:16:08.244Z,63.12
2018-02-11T19:18:34.275Z,60.64
2018-02-11T19:21:00.284Z,58.28
2018-02-11T19:23:26.312Z,59.02
2018-02-11T19:25:54.324Z,59.45
2018-02-11T19:30:52.381Z,60.88
2018-02-11T19:33:18.311Z,57.77
2018-02-11T19:35:44.310Z,60.18
2018-02-11T19:38:10.352Z,58.39
2018-02-11T19:40:36.293Z,58.40
2018-02-11T19:43:02.300Z,58.92
2018-02-11T19:45:28.239Z,57.94
2018-02-11T19:47:54.239Z,58.16
2018-02-11T19:50:20.194Z,57.57
2018-02-11T19:52:46.201Z,57.41
2018-02-11T19:55:12.141Z,57.42
2018-02-11T19:57:38.087Z,57.46
2018-02-11T20:00:04.034Z,57.09
2018-02-11T20:02:29.979Z,57.13
2018-02-11T20:04:56.010Z,58.89
2018-02-11T20:07:21.948Z,57.81
2018-02-11T20:09:47.935Z,56.59
2018-02-11T20:12:13.977Z,56.81
2018-02-11T20:14:40.024Z,56.75
2018-02-11T20:17:06.008Z,57.04
2018-02-11T20:19:32.043Z,56.99
2018-02-11T20:21:57.990Z,57.30
2018-02-11T20:24:23.939Z,57.85
2018-02-11T20:26:49.898Z,57.24
2018-02-11T20:29:15.927Z,57.15
2018-02-11T20:31:41.970Z,57.09
2018-02-11T20:34:07.912Z,56.71
2018-02-11T20:36:33.840Z,56.65
2018-02-11T20:38:59.802Z,56.14
2018-02-11T20:41:25.752Z,55.87
2018-02-11T20:43:51.684Z,55.38
2018-02-11T20:46:17.606Z,55.13
2018-02-11T20:48:43.549Z,55.98
2018-02-11T20:51:09.490Z,55.88
2018-02-11T20:53:35.446Z,55.41
2018-02-11T20:56:01.384Z,55.51
2018-02-11T20:58:27.430Z,55.54
2018-02-11T21:00:53.358Z,55.09
2018-02-11T21:03:19.343Z,54.91
2018-02-11T21:05:45.294Z,55.64
2018-02-11T21:08:11.226Z,55.37
2018-02-11T21:10:37.181Z,54.54
2018-02-11T21:13:03.116Z,54.62
2018-02-11T21:15:29.056Z,54.68
2018-02-11T21:17:55.004Z,55.06
2018-02-11T21:20:20.936Z,55.16
2018-02-11T21:22:46.874Z,55.10
2018-02-11T21:25:12.810Z,55.08
2018-02-11T21:27:38.748Z,55.18
2018-02-11T21:30:04.722Z,54.73
2018-02-11T21:32:30.702Z,54.73
2018-02-11T21:34:56.632Z,54.97
2018-02-11T21:37:22.568Z,55.22
2018-02-11T21:39:48.504Z,54.77
2018-02-11T21:42:14.446Z,54.39
2018-02-11T21:44:40.362Z,53.90
2018-02-11T21:47:06.299Z,54.63
2018-02-11T21:49:32.234Z,54.38
2018-02-11T21:51:58.165Z,54.79
2018-02-11T21:54:24.103Z,54.53
2018-02-11T21:56:50.048Z,55.06
2018-02-11T21:59:15.978Z,54.62
2018-02-11T22:01:41.914Z,55.06
2018-02-11T22:04:07.851Z,56.32
2018-02-11T22:06:33.794Z,56.36
2018-02-11T22:08:59.722Z,56.90
2018-02-11T22:11:25.686Z,57.23
2018-02-11T22:13:51.610Z,58.07
2018-02-11T22:16:17.542Z,58.61
2018-02-11T22:18:43.466Z,59.13
2018-02-11T22:21:09.421Z,59.19
2018-02-11T22:23:35.357Z,59.65
2018-02-11T22:26:01.298Z,59.77
2018-02-11T22:28:27.218Z,60.00
2018-02-11T22:30:53.163Z,59.69
2018-02-11T22:33:19.098Z,60.59
2018-02-11T22:35:45.027Z,60.57
2018-02-11T22:38:10.970Z,61.27
2018-02-11T22:40:36.900Z,61.90
2018-02-11T22:43:02.839Z,61.12
2018-02-11T22:45:28.766Z,61.13
2018-02-11T22:47:54.698Z,61.28
2018-02-11T22:50:20.636Z,61.90
2018-02-11T22:52:46.574Z,62.32
2018-02-11T22:55:12.531Z,62.10
2018-02-11T22:57:38.470Z,61.69
2018-02-11T23:00:04.393Z,62.47
2018-02-11T23:02:30.333Z,62.53
2018-02-11T23:04:56.266Z,61.23
2018-02-11T23:07:22.205Z,62.13
2018-02-11T23:09:48.126Z,62.37
2018-02-11T23:12:14.054Z,62.71
2018-02-11T23:14:40.005Z,62.85
2018-02-11T23:17:05.940Z,62.49
2018-02-11T23:19:31.861Z,62.74
2018-02-11T23:21:57.838Z,62.97
2018-02-11T23:24:23.763Z,63.03
2018-02-11T23:26:49.750Z,63.83
2018-02-11T23:29:15.650Z,63.48
2018-02-11T23:31:41.578Z,63.23
2018-02-11T23:34:07.501Z,63.75
2018-02-11T23:36:33.438Z,63.33
2018-02-11T23:38:59.362Z,62.41
2018-02-11T23:41:25.299Z,62.05
2018-02-11T23:43:51.231Z,62.43
2018-02-11T23:46:17.173Z,62.20
2018-02-11T23:48:43.107Z,63.16
2018-02-11T23:51:09.039Z,62.96
2018-02-11T23:53:34.962Z,62.74
2018-02-11T23:56:00.904Z,62.36
2018-02-11T23:58:26.960Z,62.00
